Content
SEND FEEDBACK

Australia Flag

HARRINGTON, NEW SOUTH WALES


Home > Oceania > Australia > New South Wales
Elevation: 6 meters     Latitude: 31 52S     Longitude: 152 41E

WEATHER
 
SELECT A DAY
Number of Records: 152,043;   Date Range: 2/21/03 - 3/22/16
 
SHARE

PRINT THIS DATA

[ ← Previous Day ]
WEATHER ALMANAC - 13 FEBRUARY, 2013
[ Next Day → ]
[ °F ]   °C
Weather ElementAverageHighLow
Temperature21.6 °C25 °C (12:00 pm)19 °C (4:00 am)
Dewpoint15.6 °C18 °C (10:00 pm)12 °C (2:00 pm)
Humidity68.5 %94 % (11:00 pm)39 % (3:00 pm)
Barometer1021 hPa1022.4 hPa (12:00 pm)1020 hPa (1:00 am)
Wind Speed13.7 km/h27.8 km/h (2:00 pm)
Weather ElementAverage
Wind DirectionS (180.6 °)

Weather ElementTotal
Precipitation---
Cooling Degree Days3.7 (Base 18.3)
Growing Degree Days12 (Base 10)
Averaged from 31 records on 13 February, 2013
WEATHER CONDITIONS BREAKOUT
WIND DIRECTION BREAKOUT
WEATHER BY HOUR - 13 FEBRUARY, 2013
[ °F ]   °C
Local TimeTemperatureDewpointHumidityBarometerVisibilityWind DirectionWind SpeedGust SpeedPrecipitationEventsConditions
12:00 AM21 °C17 °C78 %1021 hPaSouth (190°)11.1 km/hOvercast
1:00 AM21 °C17 °C78 %1020 hPaSW (220°)9.3 km/hOvercast
2:00 AM20 °C17 °C83 %1020 hPaSW (230°)11.1 km/hOvercast
3:00 AM20 °C16.1 °C73 %1020 hPaWest (260°)11.1 km/hOvercast
3:00 AM20 °C16 °C78 %1020 hPaWest (260°)11.1 km/hOvercast
4:00 AM19 °C16 °C83 %1020 hPaWSW (250°)9.3 km/hMostly Cloudy
5:00 AM19 °C16 °C83 %1020 hPaWest (260°)9.3 km/hOvercast
6:00 AM19 °C16 °C83 %1020 hPaWest (260°)9.3 km/hOvercast
6:00 AM19.4 °C16.1 °C75 %1020.3 hPaWest (260°)9.3 km/h
7:00 AM19 °C16 °C83 %1020 hPaSW (230°)9.3 km/hOvercast
8:00 AM21 °C16 °C73 %1021 hPaWest (280°)7.4 km/hOvercast
9:00 AM22.2 °C15 °C54 %1022 hPaSSW (210°)14.8 km/hOvercast
9:00 AM22 °C15 °C64 %1022 hPaSSW (210°)14.8 km/hOvercast
10:00 AM23 °C16 °C65 %1022 hPaSSW (200°)13 km/hOvercast
11:00 AM23 °C15 °C61 %1022 hPaSSE (150°)14.8 km/hOvercast
12:00 PM25 °C14 °C50 %1022 hPaSSE (150°)22.2 km/hMostly Cloudy
12:00 PM24.4 °C13.9 °C41 %1022.4 hPaSSE (160°)22.2 km/hOvercast
1:00 PM25 °C13 °C47 %1021 hPaSE (140°)22.2 km/hOvercast
2:00 PM25 °C12 °C44 %1021 hPaSSE (150°)27.8 km/hMostly Cloudy
3:00 PM25 °C13.9 °C39 %1021.3 hPaSSE (150°)24.1 km/h
3:00 PM25 °C14 °C50 %1021 hPaSSE (150°)24.1 km/hScattered Clouds
4:00 PM24 °C13 °C50 %1020 hPaSE (140°)20.4 km/h
5:00 PM24 °C14 °C53 %1020 hPaSSE (160°)18.5 km/hScattered Clouds
6:00 PM22 °C16 °C69 %1020 hPaESE (110°)24.1 km/hScattered Clouds
6:00 PM21.7 °C16.1 °C63 %1020.7 hPaESE (110°)24.1 km/h
7:00 PM20 °C17 °C83 %1021 hPaNNE (30°)3.7 km/hMostly Cloudy
8:00 PM20 °C17 °C83 %1021 hPaESE (110°)5.6 km/hMostly Cloudy
9:00 PM20 °C16.7 °C74 %1021.7 hPaEast (100°)3.7 km/hOvercast
9:00 PM20 °C17 °C83 %1021 hPaEast (100°)3.7 km/hOvercast
10:00 PM20 °C18 °C88 %1022 hPaNNE (30°)3.7 km/hOvercast
11:00 PM19 °C18 °C94 %1022 hPaNNW (340°)9.3 km/hOvercast
Hourly data recorded from YTRE, located 0 kilometers away from Harrington, New South Wales




STORIES FROM OUR PARTNERS